Mammoth Lakes, CA (93546)

6:04 PM PST on February 07, 2016 (GMT -0800)
Bigwood, Mammoth Lakes, CA | | Change Station
CLOSE
Current Station
Personal Weather Station
Location: Mammoth Lakes, CA
Elevation: 8045 ft
Nearby Weather Stations

Elev 8045 ft 37.64 °N, 118.99 °W | Updated 17 seconds ago

Clear
Clear
35.0 °F
Feels Like 35 °F
N
0.0
Wind Variable Wind from WSW
Gusts 0.0 mph

Today
High -- | Low -- °F
--% Chance of Precip.
Yesterday
High -- | Low -- °F
Precip. -- in
Pressure 30.53 in
Visibility 10.0 miles
Clouds Clear
Windchill 35 °F
Dew Point 24 °F
Humidity 64%
Rainfall 0.00 in
Snow Depth Not available.
6:54 AM 5:26 PM
Waning Crescent, 0% visible
METAR KMMH 080155Z AUTO 00000KT 10SM CLR 03/M04 A3053 RMK AO2
Pressure 30.53 in
Visibility 10.0 miles
Clouds Clear
Windchill 35 °F
Dew Point 24 °F
Humidity 64%
Rainfall 0.00 in
Snow Depth Not available.
6:54 AM 5:26 PM
Waning Crescent, 0% visible
METAR KMMH 080155Z AUTO 00000KT 10SM CLR 03/M04 A3053 RMK AO2

10-Day Weather Forecast

Almanac

Astronomy

Feb. 07, 2016 Rise Set
Actual Time
Civil Twilight
Nautical Twilight
Astronomical Twilight
Moon
Length of Visible Light
Length of Day
Tomorrow will be .
, % of the Moon is Illuminated

Today's Extremes

State Highs State Lows

Community

WunderPhotos

Upload Photos

1,891,363 photos uploaded!

WunderBlog® & News

Nearby

Air Quality

  Air Quality AQ Index Pollutant
Not available.

Snow Depth

Station Depth Elevation

Earthquake Activity

City Distance Mag. Time & Date
Minimum magnitude displayed is 2.5.

Coastal Water Temperatures

Place Temperature

Stations

Nearby Weather Stations

Station Location Temp. Windchill Dew Point Humidity Wind Precip. Elev Updated Type
                   

Watches & Warnings

There are currently no watches in effect.